aviador You're here:

KEUG Decoded Metar

EUGENE in OR, USA
Report Time2017-04-29 16:54:00
UTC Time2017-04-29 17:46:32
Flight Rules vfr VFR
WindCalm
Visibility9999 m
Phenomena:N/A
Clouds:Few 160 Hf
Scattered 280 Hf
Expected CloudBase > 2,000 ft AGL from Temp-Dew spread
CeilingNone
Temp11°C (ISA -3)
Dew Point06°C (72% RH)
AAT10.1°C
QNH1027 hPa
Density Alt-358 ft
Elevation374 ft
Report Wrong Elevation
Raw Report
KEUG 291654Z 00000KT 10SM FEW160 SCT280 11/06 A3032=

Extra information for KEUG:More info

Metar Taf Metar & Taf Last 4 Metars F.Rules Stats Wind Profile Meteogram Temp Stats Airport Information Weather charts Add Link Nearby VenuesMetar ALERT Operation Metar Decoded Social comments

AIRNAV info for KEUG